createdAt,value
2018-10-18T00:01:08.237Z,91.00
2018-10-18T00:03:37.126Z,91.00
2018-10-18T00:06:05.991Z,90.90
2018-10-18T00:08:34.525Z,91.00
2018-10-18T00:11:03.288Z,91.10
2018-10-18T00:13:31.836Z,91.00
2018-10-18T00:16:00.404Z,90.90
2018-10-18T00:18:28.922Z,90.80
2018-10-18T00:20:57.464Z,90.80
2018-10-18T00:23:26.379Z,90.80
2018-10-18T00:25:54.978Z,91.20
2018-10-18T00:28:23.507Z,91.20
2018-10-18T00:30:52.035Z,91.10
2018-10-18T00:33:20.595Z,91.10
2018-10-18T00:35:49.123Z,91.10
2018-10-18T00:38:17.733Z,91.00
2018-10-18T00:40:46.208Z,91.00
2018-10-18T00:43:14.792Z,91.00
2018-10-18T00:45:43.301Z,90.90
2018-10-18T00:48:12.007Z,91.10
2018-10-18T00:50:40.522Z,91.10
2018-10-18T00:53:09.059Z,91.00
2018-10-18T00:55:37.611Z,91.00
2018-10-18T00:58:06.184Z,90.80
2018-10-18T01:00:34.711Z,90.80
2018-10-18T01:03:03.267Z,91.00
2018-10-18T01:05:31.812Z,91.00
2018-10-18T01:08:00.454Z,91.20
2018-10-18T01:10:28.937Z,91.40
2018-10-18T01:12:57.468Z,91.30
2018-10-18T01:15:26.009Z,91.30
2018-10-18T01:17:54.568Z,91.40
2018-10-18T01:20:23.156Z,91.20
2018-10-18T01:22:51.679Z,91.10
2018-10-18T01:25:20.384Z,91.30
2018-10-18T01:27:49.143Z,91.40
2018-10-18T01:30:17.660Z,91.20
2018-10-18T01:32:46.216Z,91.20
2018-10-18T01:35:14.764Z,91.10
2018-10-18T01:37:43.313Z,91.00
2018-10-18T01:40:11.853Z,91.00
2018-10-18T01:42:40.540Z,91.10
2018-10-18T01:45:09.068Z,91.10
2018-10-18T01:47:37.686Z,91.20
2018-10-18T01:50:07.153Z,91.10
2018-10-18T01:52:35.706Z,91.10
2018-10-18T01:55:05.029Z,91.10
2018-10-18T01:57:33.584Z,91.10
2018-10-18T02:00:02.241Z,91.10
2018-10-18T02:02:30.987Z,91.10
2018-10-18T02:04:59.537Z,91.20
2018-10-18T02:07:28.062Z,91.10
2018-10-18T02:09:56.681Z,91.00
2018-10-18T02:12:25.198Z,90.90
2018-10-18T02:14:53.716Z,91.20
2018-10-18T02:17:22.273Z,91.50
2018-10-18T02:19:50.807Z,91.50
2018-10-18T02:22:19.352Z,91.50
2018-10-18T02:24:47.924Z,91.50
2018-10-18T02:27:16.446Z,91.60
2018-10-18T02:29:44.997Z,91.50
2018-10-18T02:32:13.516Z,91.50
2018-10-18T02:34:42.080Z,91.50
2018-10-18T02:37:10.609Z,91.60
2018-10-18T02:39:39.208Z,91.60
2018-10-18T02:42:07.788Z,91.80
2018-10-18T02:44:36.298Z,91.80
2018-10-18T02:47:04.933Z,91.70
2018-10-18T02:49:33.460Z,91.70
2018-10-18T02:52:01.977Z,91.80
2018-10-18T02:54:30.564Z,91.70
2018-10-18T02:56:59.057Z,91.80
2018-10-18T02:59:27.604Z,92.00
2018-10-18T03:01:56.125Z,92.10
2018-10-18T03:04:25.147Z,92.00
2018-10-18T03:06:53.661Z,92.20
2018-10-18T03:09:22.191Z,92.20
2018-10-18T03:11:50.711Z,92.20
2018-10-18T03:14:19.233Z,92.10
2018-10-18T03:16:47.778Z,92.10
2018-10-18T03:19:16.326Z,92.30
2018-10-18T03:21:44.873Z,92.20
2018-10-18T03:24:13.449Z,92.20
2018-10-18T03:26:41.933Z,92.20
2018-10-18T03:29:10.491Z,92.20
2018-10-18T03:31:39.004Z,92.20
2018-10-18T03:34:07.851Z,92.30
2018-10-18T03:36:36.409Z,92.30
2018-10-18T03:39:08.173Z,92.30
2018-10-18T03:41:36.786Z,92.20
2018-10-18T03:44:05.898Z,92.10
2018-10-18T03:46:34.661Z,92.20
2018-10-18T03:49:04.241Z,92.30
2018-10-18T03:51:32.744Z,92.10
2018-10-18T03:54:01.923Z,92.10
2018-10-18T03:56:30.560Z,92.00
2018-10-18T03:58:59.103Z,92.10
2018-10-18T04:01:28.191Z,92.20
2018-10-18T04:03:56.700Z,92.40
2018-10-18T04:06:25.329Z,92.50
2018-10-18T04:08:53.856Z,93.20
2018-10-18T04:11:22.456Z,93.00
2018-10-18T04:13:50.951Z,92.80
2018-10-18T04:16:19.501Z,92.70
2018-10-18T04:18:48.031Z,92.60
2018-10-18T04:21:16.598Z,92.60
2018-10-18T04:23:45.241Z,92.70
2018-10-18T04:26:13.779Z,92.70
2018-10-18T04:28:42.389Z,92.70
2018-10-18T04:31:10.865Z,92.70
2018-10-18T04:33:39.368Z,92.70
2018-10-18T04:36:08.011Z,92.70
2018-10-18T04:38:36.469Z,92.70
2018-10-18T04:41:05.201Z,92.40
2018-10-18T04:43:33.704Z,92.20
2018-10-18T04:46:02.228Z,92.30
2018-10-18T04:48:30.882Z,92.30
2018-10-18T04:50:59.659Z,92.30
2018-10-18T04:53:28.337Z,92.40
2018-10-18T04:55:56.847Z,92.30
2018-10-18T04:58:25.421Z,92.40
2018-10-18T05:00:54.692Z,92.50
2018-10-18T05:03:23.213Z,92.40
2018-10-18T05:05:55.950Z,92.50
2018-10-18T05:08:25.534Z,92.40
2018-10-18T05:10:54.363Z,92.40
2018-10-18T05:13:23.129Z,92.60
2018-10-18T05:15:51.730Z,92.70
2018-10-18T05:18:21.019Z,92.60
2018-10-18T05:20:49.641Z,92.50
2018-10-18T05:23:18.156Z,92.60
2018-10-18T05:25:47.481Z,92.60
2018-10-18T05:28:15.992Z,92.60
2018-10-18T05:30:44.539Z,92.70
2018-10-18T05:33:13.081Z,92.80
2018-10-18T05:35:41.617Z,92.80
2018-10-18T05:38:10.231Z,92.70
2018-10-18T05:40:39.026Z,92.80
2018-10-18T05:43:07.711Z,92.70
2018-10-18T05:45:36.159Z,92.80
2018-10-18T05:48:05.005Z,92.80
2018-10-18T05:50:33.582Z,93.00
2018-10-18T05:53:02.266Z,93.10
2018-10-18T05:55:30.761Z,93.30
2018-10-18T05:57:59.339Z,93.30
2018-10-18T06:00:27.859Z,93.30
2018-10-18T06:02:56.374Z,93.40
2018-10-18T06:05:24.924Z,93.20
2018-10-18T06:07:53.466Z,93.30
2018-10-18T06:10:33.277Z,92.90
2018-10-18T06:13:01.743Z,92.90
2018-10-18T06:15:30.264Z,92.80
2018-10-18T06:17:58.775Z,92.80
2018-10-18T06:20:27.324Z,92.60
2018-10-18T06:22:55.981Z,92.90
2018-10-18T06:25:24.379Z,92.90
2018-10-18T06:27:52.901Z,93.00
2018-10-18T06:30:21.431Z,93.10
2018-10-18T06:32:49.931Z,93.20
2018-10-18T06:35:18.512Z,93.20
2018-10-18T06:37:47.020Z,93.20
2018-10-18T06:40:16.962Z,93.30
2018-10-18T06:42:45.500Z,93.50
2018-10-18T06:45:18.432Z,93.70
2018-10-18T06:47:47.315Z,93.30
2018-10-18T06:50:19.937Z,93.30
2018-10-18T06:52:48.466Z,93.40
2018-10-18T06:55:17.128Z,93.30
2018-10-18T06:57:45.978Z,93.20
2018-10-18T07:00:20.653Z,93.20
2018-10-18T07:02:49.671Z,93.10
2018-10-18T07:05:18.498Z,93.00
2018-10-18T07:07:47.004Z,93.00
2018-10-18T07:10:15.551Z,92.90
2018-10-18T07:12:44.104Z,92.90
2018-10-18T07:15:13.855Z,92.90
2018-10-18T07:17:43.119Z,92.90
2018-10-18T07:20:12.586Z,92.70
2018-10-18T07:22:41.647Z,92.10
2018-10-18T07:25:12.646Z,92.00
2018-10-18T07:27:42.004Z,91.90
2018-10-18T07:30:12.457Z,91.90
2018-10-18T07:32:41.428Z,91.70
2018-10-18T07:35:11.384Z,91.80
2018-10-18T07:37:39.847Z,91.90
2018-10-18T07:40:12.181Z,92.00
2018-10-18T07:42:40.786Z,92.00
2018-10-18T07:45:10.463Z,92.10
2018-10-18T07:47:39.110Z,92.10
2018-10-18T07:50:07.981Z,92.20
2018-10-18T07:52:37.081Z,92.10
2018-10-18T07:55:06.747Z,92.10
2018-10-18T07:57:35.496Z,92.10
2018-10-18T08:00:05.174Z,92.00
2018-10-18T08:02:33.672Z,92.10
2018-10-18T08:05:02.228Z,92.00
2018-10-18T08:07:30.747Z,91.90
2018-10-18T08:09:59.653Z,91.90
2018-10-18T08:12:28.303Z,91.80
2018-10-18T08:14:56.751Z,91.70
2018-10-18T08:17:25.362Z,91.90
2018-10-18T08:19:53.858Z,91.50
2018-10-18T08:22:22.563Z,91.50
2018-10-18T08:24:51.127Z,91.40
2018-10-18T08:27:19.716Z,91.20
2018-10-18T08:29:48.993Z,91.00
2018-10-18T08:32:17.615Z,90.80
2018-10-18T08:34:46.179Z,90.70
2018-10-18T08:37:14.944Z,90.60
2018-10-18T08:39:45.092Z,90.50
2018-10-18T08:42:13.683Z,90.40
2018-10-18T08:44:42.228Z,90.20
2018-10-18T08:47:10.787Z,90.10
2018-10-18T08:49:39.363Z,89.80
2018-10-18T08:52:07.940Z,89.60
2018-10-18T08:54:36.497Z,89.10
2018-10-18T08:57:05.053Z,88.60
2018-10-18T08:59:33.563Z,87.90
2018-10-18T09:02:02.133Z,87.40
2018-10-18T09:04:30.641Z,86.90
2018-10-18T09:06:59.185Z,86.70
2018-10-18T09:09:27.959Z,86.00
2018-10-18T09:11:56.508Z,85.60
2018-10-18T09:14:25.031Z,85.20
2018-10-18T09:16:53.887Z,85.10
2018-10-18T09:19:22.396Z,84.70
2018-10-18T09:21:50.909Z,84.30
2018-10-18T09:24:19.464Z,83.70
2018-10-18T09:26:48.009Z,83.50
2018-10-18T09:29:16.553Z,83.20
2018-10-18T09:31:45.113Z,82.40
2018-10-18T09:34:13.651Z,82.00
2018-10-18T09:36:42.185Z,81.70
2018-10-18T09:39:10.730Z,81.60
2018-10-18T09:41:39.258Z,81.50
2018-10-18T09:44:07.802Z,80.60
2018-10-18T09:46:37.111Z,79.80
2018-10-18T09:49:06.009Z,79.20
2018-10-18T09:51:34.604Z,78.00
2018-10-18T09:54:03.676Z,77.40
2018-10-18T09:56:33.120Z,76.90
2018-10-18T09:59:02.034Z,76.40
2018-10-18T10:02:39.532Z,75.60
2018-10-18T10:05:08.074Z,75.40
2018-10-18T10:07:36.619Z,73.80
2018-10-18T10:10:05.451Z,73.00
2018-10-18T10:12:33.981Z,72.50
2018-10-18T10:15:02.546Z,71.60
2018-10-18T10:17:31.271Z,70.30
2018-10-18T10:19:59.809Z,69.90
2018-10-18T10:22:28.352Z,68.90
2018-10-18T10:24:56.912Z,67.40
2018-10-18T10:27:25.596Z,65.70
2018-10-18T10:29:54.154Z,64.00
2018-10-18T10:32:22.693Z,62.40
2018-10-18T10:34:51.217Z,60.30
2018-10-18T10:37:19.777Z,58.40
2018-10-18T10:39:48.289Z,56.20
2018-10-18T10:42:17.170Z,54.30
2018-10-18T10:44:45.668Z,53.50
2018-10-18T10:47:14.200Z,52.60
2018-10-18T10:49:42.812Z,51.90
2018-10-18T10:52:11.421Z,51.30
2018-10-18T10:54:40.282Z,50.60
2018-10-18T10:57:08.900Z,49.40
2018-10-18T10:59:37.421Z,49.10
2018-10-18T11:02:06.533Z,48.70
2018-10-18T11:04:35.121Z,47.30
2018-10-18T11:07:03.670Z,46.30
2018-10-18T11:09:32.295Z,45.80
2018-10-18T11:12:00.913Z,45.30
2018-10-18T11:14:29.364Z,44.20
2018-10-18T11:16:57.978Z,43.30
2018-10-18T11:19:26.535Z,42.50
2018-10-18T11:21:55.058Z,41.40
2018-10-18T11:24:23.664Z,41.30
2018-10-18T11:26:52.240Z,41.80
2018-10-18T11:29:20.806Z,41.40
2018-10-18T11:31:49.349Z,40.90
2018-10-18T11:34:17.948Z,40.90
2018-10-18T11:36:46.468Z,41.30
2018-10-18T11:39:15.035Z,39.60
2018-10-18T11:41:43.563Z,39.00
2018-10-18T11:44:12.175Z,38.80
2018-10-18T11:46:40.717Z,38.50
2018-10-18T11:49:09.272Z,38.40
2018-10-18T11:51:37.901Z,38.00
2018-10-18T11:54:06.496Z,37.30
2018-10-18T11:56:34.990Z,37.00
2018-10-18T11:59:03.648Z,36.20
2018-10-18T12:01:32.260Z,36.20
2018-10-18T12:04:00.813Z,36.40
2018-10-18T12:06:29.400Z,36.40
2018-10-18T12:08:57.929Z,36.60
2018-10-18T12:11:26.508Z,36.40
2018-10-18T12:13:55.104Z,37.10
2018-10-18T12:16:23.681Z,36.70
2018-10-18T12:18:52.289Z,36.50
2018-10-18T12:21:20.820Z,36.40
2018-10-18T12:23:49.382Z,35.60
2018-10-18T12:26:17.985Z,35.50
2018-10-18T12:28:46.529Z,35.00
2018-10-18T12:31:15.071Z,34.80
2018-10-18T12:33:43.621Z,33.90
2018-10-18T12:36:12.144Z,33.50
2018-10-18T12:38:40.697Z,33.00
2018-10-18T12:41:09.430Z,33.00
2018-10-18T12:43:37.810Z,33.10
2018-10-18T12:46:06.380Z,33.10
2018-10-18T12:48:34.971Z,32.50
2018-10-18T12:51:03.487Z,32.10
2018-10-18T12:53:32.030Z,32.00
2018-10-18T12:56:00.642Z,31.80
2018-10-18T12:58:29.172Z,31.00
2018-10-18T13:00:57.744Z,30.60
2018-10-18T13:03:26.265Z,30.10
2018-10-18T13:05:54.851Z,30.10
2018-10-18T13:08:23.381Z,30.30
2018-10-18T13:10:51.959Z,30.40
2018-10-18T13:13:20.492Z,30.30
2018-10-18T13:15:49.282Z,30.20
2018-10-18T13:18:17.898Z,30.30
2018-10-18T13:20:46.581Z,30.20
2018-10-18T13:23:15.101Z,30.20
2018-10-18T13:25:43.738Z,30.20
2018-10-18T13:28:12.262Z,29.90
2018-10-18T13:30:40.806Z,29.70
2018-10-18T13:33:09.399Z,30.00
2018-10-18T13:35:38.077Z,30.00
2018-10-18T13:38:06.813Z,30.30
2018-10-18T13:40:35.323Z,30.60
2018-10-18T13:43:04.064Z,30.20
2018-10-18T13:45:32.624Z,29.60
2018-10-18T13:48:01.187Z,29.60
2018-10-18T13:50:29.724Z,29.50
2018-10-18T13:52:58.308Z,29.50
2018-10-18T13:55:27.065Z,29.20
2018-10-18T13:57:55.808Z,28.90
2018-10-18T14:00:31.380Z,28.90
2018-10-18T14:02:59.926Z,28.80
2018-10-18T14:05:28.908Z,29.10
2018-10-18T14:07:57.762Z,29.40
2018-10-18T14:10:26.347Z,29.10
2018-10-18T14:12:55.110Z,29.00
2018-10-18T14:15:23.678Z,28.70
2018-10-18T14:17:52.328Z,28.60
2018-10-18T14:20:20.890Z,28.80
2018-10-18T14:22:49.381Z,29.00
2018-10-18T14:25:17.984Z,29.30
2018-10-18T14:27:46.572Z,29.40
2018-10-18T14:30:15.269Z,29.20
2018-10-18T14:32:46.936Z,29.20
2018-10-18T14:35:15.513Z,29.40
2018-10-18T14:37:44.020Z,29.10
2018-10-18T14:40:13.089Z,29.20
2018-10-18T14:42:41.755Z,29.00
2018-10-18T14:45:10.606Z,29.30
2018-10-18T14:47:39.311Z,29.10
2018-10-18T14:50:09.945Z,29.30
2018-10-18T14:52:38.455Z,30.00
2018-10-18T14:55:07.177Z,29.40
2018-10-18T14:57:35.808Z,29.50
2018-10-18T15:00:04.654Z,29.70
2018-10-18T15:02:33.200Z,30.70
2018-10-18T15:05:02.435Z,30.40
2018-10-18T15:07:30.962Z,30.70
2018-10-18T15:09:59.622Z,30.90
2018-10-18T15:12:28.246Z,31.00
2018-10-18T15:14:56.751Z,31.30
2018-10-18T15:17:25.315Z,30.90
2018-10-18T15:19:53.859Z,31.20
2018-10-18T15:22:22.415Z,31.20
2018-10-18T15:24:50.953Z,31.20
2018-10-18T15:27:19.552Z,32.00
2018-10-18T15:29:48.066Z,31.60
2018-10-18T15:32:16.657Z,32.20
2018-10-18T15:34:45.178Z,33.10
2018-10-18T15:37:13.755Z,33.90
2018-10-18T15:39:42.315Z,34.30
2018-10-18T15:42:10.865Z,34.90
2018-10-18T15:44:39.382Z,35.60
2018-10-18T15:47:08.014Z,36.60
2018-10-18T15:49:36.823Z,37.80
2018-10-18T15:52:05.560Z,39.10
2018-10-18T15:54:34.084Z,40.20
2018-10-18T15:57:02.691Z,41.20
2018-10-18T15:59:31.203Z,42.40
2018-10-18T16:01:59.764Z,43.30
2018-10-18T16:04:28.276Z,44.20
2018-10-18T16:06:56.814Z,44.80
2018-10-18T16:09:25.320Z,45.70
2018-10-18T16:11:53.880Z,46.40
2018-10-18T16:14:22.452Z,46.90
2018-10-18T16:16:51.020Z,47.80
2018-10-18T16:19:19.560Z,48.60
2018-10-18T16:21:48.135Z,49.10
2018-10-18T16:24:16.719Z,49.40
2018-10-18T16:26:45.228Z,50.00
2018-10-18T16:29:13.769Z,50.40
2018-10-18T16:31:42.315Z,50.90
2018-10-18T16:34:10.830Z,51.50
2018-10-18T16:36:39.360Z,51.90
2018-10-18T16:39:10.428Z,52.50
2018-10-18T16:41:39.112Z,52.70
2018-10-18T16:44:07.977Z,53.30
2018-10-18T16:46:36.535Z,53.80
2018-10-18T16:49:05.716Z,54.30
2018-10-18T16:51:34.292Z,54.90
2018-10-18T16:54:03.114Z,55.50
2018-10-18T16:56:31.684Z,56.00
2018-10-18T16:59:00.220Z,56.60
2018-10-18T17:01:28.751Z,56.90
2018-10-18T17:03:57.322Z,57.20
2018-10-18T17:06:25.988Z,57.90
2018-10-18T17:08:54.492Z,58.10
2018-10-18T17:11:23.107Z,58.60
2018-10-18T17:13:51.664Z,59.40
2018-10-18T17:16:20.327Z,60.00
2018-10-18T17:18:48.768Z,60.60
2018-10-18T17:21:17.457Z,60.80
2018-10-18T17:23:45.943Z,61.30
2018-10-18T17:26:14.607Z,61.90
2018-10-18T17:28:43.079Z,62.40
2018-10-18T17:31:11.610Z,63.30
2018-10-18T17:33:40.185Z,63.60
2018-10-18T17:36:08.777Z,63.90
2018-10-18T17:38:37.304Z,64.60
2018-10-18T17:41:06.830Z,65.00
2018-10-18T17:43:35.387Z,65.30
2018-10-18T17:46:03.956Z,65.70
2018-10-18T17:48:32.488Z,65.80
2018-10-18T17:51:01.027Z,66.40
2018-10-18T17:53:29.620Z,66.70
2018-10-18T17:55:58.146Z,67.10
2018-10-18T17:58:26.659Z,67.30
2018-10-18T18:00:55.391Z,68.00
2018-10-18T18:03:23.922Z,68.20
2018-10-18T18:05:52.478Z,68.80
2018-10-18T18:08:21.033Z,69.20
2018-10-18T18:10:49.534Z,69.60
2018-10-18T18:13:18.066Z,69.90
2018-10-18T18:15:46.570Z,70.60
2018-10-18T18:18:15.177Z,71.00
2018-10-18T18:20:43.697Z,71.20
2018-10-18T18:23:12.209Z,71.40
2018-10-18T18:25:40.700Z,71.80
2018-10-18T18:28:09.340Z,71.90
2018-10-18T18:30:37.860Z,72.40
2018-10-18T18:33:06.382Z,72.30
2018-10-18T18:35:34.918Z,72.40
2018-10-18T18:38:03.713Z,72.70
2018-10-18T18:40:32.252Z,72.90
2018-10-18T18:43:00.942Z,73.20
2018-10-18T18:45:33.485Z,73.60
2018-10-18T18:48:03.482Z,74.30
2018-10-18T18:50:32.037Z,74.80
2018-10-18T18:53:00.562Z,75.10
2018-10-18T18:55:29.827Z,75.20
2018-10-18T18:57:58.420Z,75.50
2018-10-18T19:00:27.150Z,75.90
2018-10-18T19:02:55.638Z,76.20
2018-10-18T19:05:24.988Z,76.80
2018-10-18T19:07:53.471Z,77.20
2018-10-18T19:10:21.999Z,76.90
2018-10-18T19:12:50.501Z,77.20
2018-10-18T19:15:19.024Z,77.20
2018-10-18T19:17:47.555Z,77.40
2018-10-18T19:20:16.091Z,77.80
2018-10-18T19:22:44.649Z,77.80
2018-10-18T19:25:13.123Z,77.70
2018-10-18T19:27:41.613Z,77.80
2018-10-18T19:30:11.534Z,77.70
2018-10-18T19:32:40.383Z,78.30
2018-10-18T19:35:08.907Z,78.10
2018-10-18T19:37:37.388Z,78.30
2018-10-18T19:40:07.007Z,78.90
2018-10-18T19:42:35.654Z,78.90
2018-10-18T19:45:04.525Z,79.50
2018-10-18T19:47:33.032Z,79.70
2018-10-18T19:50:01.709Z,79.60
2018-10-18T19:52:30.340Z,79.70
2018-10-18T19:54:58.767Z,79.90
2018-10-18T19:57:27.369Z,80.00
2018-10-18T19:59:55.903Z,80.50
2018-10-18T20:02:24.539Z,80.50
2018-10-18T20:04:53.062Z,80.70
2018-10-18T20:07:21.641Z,80.70
2018-10-18T20:09:50.167Z,81.00
2018-10-18T20:12:18.671Z,81.30
2018-10-18T20:14:47.200Z,81.30
2018-10-18T20:17:16.559Z,81.40
2018-10-18T20:19:45.401Z,82.00
2018-10-18T20:22:14.203Z,81.90
2018-10-18T20:24:42.833Z,82.60
2018-10-18T20:27:12.611Z,82.90
2018-10-18T20:29:41.151Z,82.80
2018-10-18T20:32:09.715Z,82.90
2018-10-18T20:34:38.598Z,83.00
2018-10-18T20:37:07.156Z,83.30
2018-10-18T20:39:35.804Z,83.90
2018-10-18T20:42:04.355Z,84.50
2018-10-18T20:44:32.897Z,84.50
2018-10-18T20:47:01.559Z,84.70
2018-10-18T20:49:31.368Z,85.00
2018-10-18T20:52:00.798Z,84.60
2018-10-18T20:54:29.351Z,84.80
2018-10-18T20:56:57.896Z,84.60
2018-10-18T20:59:26.414Z,85.70
2018-10-18T21:01:54.952Z,85.30
2018-10-18T21:04:23.457Z,85.50
2018-10-18T21:06:51.986Z,86.10
2018-10-18T21:09:20.499Z,86.00
2018-10-18T21:11:49.366Z,85.70
2018-10-18T21:14:18.421Z,86.50
2018-10-18T21:16:46.969Z,86.80
2018-10-18T21:19:15.475Z,86.80
2018-10-18T21:21:44.029Z,86.80
2018-10-18T21:24:12.525Z,87.20
2018-10-18T21:26:41.044Z,87.20
2018-10-18T21:29:09.634Z,87.30
2018-10-18T21:31:38.131Z,87.00
2018-10-18T21:34:06.666Z,87.20
2018-10-18T21:36:35.218Z,87.50
2018-10-18T21:39:05.375Z,87.60
2018-10-18T21:41:33.853Z,87.50
2018-10-18T21:44:02.519Z,88.10
2018-10-18T21:46:31.055Z,87.70
2018-10-18T21:48:59.701Z,87.90
2018-10-18T21:51:28.180Z,88.30
2018-10-18T21:53:56.728Z,88.10
2018-10-18T21:56:25.294Z,88.60
2018-10-18T21:58:53.825Z,88.20
2018-10-18T22:01:22.509Z,88.70
2018-10-18T22:03:51.003Z,89.00
2018-10-18T22:06:19.530Z,89.00
2018-10-18T22:08:48.056Z,89.60
2018-10-18T22:11:16.549Z,89.20
2018-10-18T22:13:45.051Z,89.30
2018-10-18T22:16:13.583Z,89.40
2018-10-18T22:18:42.091Z,89.30
2018-10-18T22:21:10.686Z,89.50
2018-10-18T22:23:39.195Z,88.80
2018-10-18T22:26:07.736Z,89.60
2018-10-18T22:28:36.271Z,89.90
2018-10-18T22:31:05.419Z,89.80
2018-10-18T22:33:33.925Z,90.00
2018-10-18T22:36:02.449Z,90.00
2018-10-18T22:38:30.974Z,90.10
2018-10-18T22:40:59.497Z,90.10
2018-10-18T22:43:28.360Z,90.20
2018-10-18T22:46:00.624Z,90.20
2018-10-18T22:48:30.657Z,90.10
2018-10-18T22:50:59.852Z,90.20
2018-10-18T22:53:29.040Z,90.20
2018-10-18T22:55:57.521Z,90.50
2018-10-18T22:58:26.103Z,90.60
2018-10-18T23:00:54.590Z,90.70
2018-10-18T23:03:23.161Z,90.80
2018-10-18T23:05:51.674Z,90.70
2018-10-18T23:08:20.200Z,90.60
2018-10-18T23:10:48.760Z,90.80
2018-10-18T23:13:17.274Z,90.80
2018-10-18T23:15:45.798Z,90.90
2018-10-18T23:18:14.393Z,91.10
2018-10-18T23:20:42.896Z,90.90
2018-10-18T23:23:11.668Z,90.90
2018-10-18T23:25:40.581Z,91.00
2018-10-18T23:28:09.148Z,91.20
2018-10-18T23:30:37.669Z,90.80
2018-10-18T23:33:06.277Z,90.90
2018-10-18T23:35:35.415Z,90.80
2018-10-18T23:38:03.942Z,91.00
2018-10-18T23:40:32.468Z,90.90
2018-10-18T23:43:01.000Z,90.70
2018-10-18T23:45:29.484Z,91.50
2018-10-18T23:47:58.093Z,91.00
2018-10-18T23:50:26.606Z,90.90
2018-10-18T23:52:55.139Z,91.00
2018-10-18T23:55:23.652Z,91.10
2018-10-18T23:57:52.162Z,91.10
